sensor_id;sensor_type;location;lat;lon;timestamp;P1;durP1;ratioP1;P2;durP2;ratioP2
5175;SDS011;2607;50.934;6.934;2022-09-11T00:01:25;18.30;;;13.90;;
5175;SDS011;2607;50.934;6.934;2022-09-11T00:03:51;21.20;;;13.30;;
5175;SDS011;2607;50.934;6.934;2022-09-11T00:06:19;17.90;;;15.37;;
5175;SDS011;2607;50.934;6.934;2022-09-11T00:08:45;16.43;;;14.00;;
5175;SDS011;2607;50.934;6.934;2022-09-11T00:11:14;17.47;;;15.50;;
5175;SDS011;2607;50.934;6.934;2022-09-11T00:13:42;19.37;;;14.40;;
5175;SDS011;2607;50.934;6.934;2022-09-11T00:16:31;17.83;;;14.87;;
5175;SDS011;2607;50.934;6.934;2022-09-11T00:19:01;19.87;;;15.63;;
5175;SDS011;2607;50.934;6.934;2022-09-11T00:21:31;19.13;;;15.80;;
5175;SDS011;2607;50.934;6.934;2022-09-11T00:23:57;15.80;;;13.43;;
5175;SDS011;2607;50.934;6.934;2022-09-11T00:26:23;19.77;;;14.70;;
5175;SDS011;2607;50.934;6.934;2022-09-11T00:28:49;17.77;;;14.83;;
5175;SDS011;2607;50.934;6.934;2022-09-11T00:31:17;23.50;;;16.70;;
5175;SDS011;2607;50.934;6.934;2022-09-11T00:33:47;21.03;;;16.87;;
5175;SDS011;2607;50.934;6.934;2022-09-11T00:36:17;25.17;;;17.77;;
5175;SDS011;2607;50.934;6.934;2022-09-11T00:38:48;23.87;;;17.50;;
5175;SDS011;2607;50.934;6.934;2022-09-11T00:41:19;20.67;;;16.63;;
5175;SDS011;2607;50.934;6.934;2022-09-11T00:43:57;20.33;;;15.43;;
5175;SDS011;2607;50.934;6.934;2022-09-11T00:46:39;21.57;;;16.53;;
5175;SDS011;2607;50.934;6.934;2022-09-11T00:49:17;21.03;;;16.57;;
5175;SDS011;2607;50.934;6.934;2022-09-11T00:54:52;22.20;;;17.03;;
5175;SDS011;2607;50.934;6.934;2022-09-11T00:57:22;25.97;;;17.10;;
5175;SDS011;2607;50.934;6.934;2022-09-11T00:59:51;22.37;;;18.50;;
5175;SDS011;2607;50.934;6.934;2022-09-11T01:02:19;23.63;;;18.00;;
5175;SDS011;2607;50.934;6.934;2022-09-11T01:04:47;26.27;;;17.23;;
5175;SDS011;2607;50.934;6.934;2022-09-11T01:07:14;20.27;;;17.40;;
5175;SDS011;2607;50.934;6.934;2022-09-11T01:09:42;20.93;;;17.87;;
5175;SDS011;2607;50.934;6.934;2022-09-11T01:12:09;20.87;;;16.50;;
5175;SDS011;2607;50.934;6.934;2022-09-11T01:23:52;19.10;;;16.50;;
5175;SDS011;2607;50.934;6.934;2022-09-11T01:31:48;23.50;;;19.50;;
5175;SDS011;2607;50.934;6.934;2022-09-11T01:37:01;24.73;;;18.80;;
5175;SDS011;2607;50.934;6.934;2022-09-11T01:39:32;23.57;;;17.93;;
5175;SDS011;2607;50.934;6.934;2022-09-11T01:42:05;20.80;;;17.87;;
5175;SDS011;2607;50.934;6.934;2022-09-11T01:44:38;24.33;;;18.73;;
5175;SDS011;2607;50.934;6.934;2022-09-11T01:47:10;23.93;;;18.67;;
5175;SDS011;2607;50.934;6.934;2022-09-11T01:49:41;26.53;;;19.77;;
5175;SDS011;2607;50.934;6.934;2022-09-11T01:52:29;30.00;;;19.83;;
5175;SDS011;2607;50.934;6.934;2022-09-11T01:55:00;29.13;;;19.80;;
5175;SDS011;2607;50.934;6.934;2022-09-11T01:57:36;24.77;;;21.03;;
5175;SDS011;2607;50.934;6.934;2022-09-11T02:00:07;31.60;;;21.37;;
5175;SDS011;2607;50.934;6.934;2022-09-11T02:02:36;31.47;;;21.60;;
5175;SDS011;2607;50.934;6.934;2022-09-11T02:05:10;29.47;;;22.63;;
5175;SDS011;2607;50.934;6.934;2022-09-11T02:07:42;30.03;;;23.23;;
5175;SDS011;2607;50.934;6.934;2022-09-11T02:10:17;27.67;;;21.93;;
5175;SDS011;2607;50.934;6.934;2022-09-11T02:12:52;29.03;;;22.77;;
5175;SDS011;2607;50.934;6.934;2022-09-11T02:15:49;33.17;;;22.43;;
5175;SDS011;2607;50.934;6.934;2022-09-11T02:18:24;30.80;;;23.03;;
5175;SDS011;2607;50.934;6.934;2022-09-11T02:20:56;29.30;;;23.27;;
5175;SDS011;2607;50.934;6.934;2022-09-11T02:23:21;28.77;;;22.80;;
5175;SDS011;2607;50.934;6.934;2022-09-11T02:25:47;27.87;;;22.23;;
5175;SDS011;2607;50.934;6.934;2022-09-11T02:28:13;27.70;;;23.50;;
5175;SDS011;2607;50.934;6.934;2022-09-11T02:30:38;33.80;;;23.50;;
5175;SDS011;2607;50.934;6.934;2022-09-11T02:33:05;32.43;;;24.27;;
5175;SDS011;2607;50.934;6.934;2022-09-11T02:35:50;37.13;;;26.53;;
5175;SDS011;2607;50.934;6.934;2022-09-11T02:38:22;35.37;;;25.13;;
5175;SDS011;2607;50.934;6.934;2022-09-11T02:40:55;33.60;;;25.20;;
5175;SDS011;2607;50.934;6.934;2022-09-11T02:43:38;32.60;;;25.57;;
5175;SDS011;2607;50.934;6.934;2022-09-11T02:56:56;29.43;;;24.27;;
5175;SDS011;2607;50.934;6.934;2022-09-11T02:59:30;34.83;;;26.30;;
5175;SDS011;2607;50.934;6.934;2022-09-11T03:01:59;35.37;;;26.10;;
5175;SDS011;2607;50.934;6.934;2022-09-11T03:04:26;35.50;;;26.87;;
5175;SDS011;2607;50.934;6.934;2022-09-11T03:06:53;33.30;;;27.13;;
5175;SDS011;2607;50.934;6.934;2022-09-11T03:09:20;37.97;;;29.30;;
5175;SDS011;2607;50.934;6.934;2022-09-11T03:11:46;39.90;;;30.17;;
5175;SDS011;2607;50.934;6.934;2022-09-11T03:14:12;36.30;;;28.43;;
5175;SDS011;2607;50.934;6.934;2022-09-11T03:16:38;38.20;;;28.30;;
5175;SDS011;2607;50.934;6.934;2022-09-11T03:19:05;41.63;;;29.33;;
5175;SDS011;2607;50.934;6.934;2022-09-11T03:21:31;37.70;;;28.50;;
5175;SDS011;2607;50.934;6.934;2022-09-11T03:23:57;40.10;;;30.93;;
5175;SDS011;2607;50.934;6.934;2022-09-11T03:26:23;42.70;;;32.43;;
5175;SDS011;2607;50.934;6.934;2022-09-11T03:28:49;42.63;;;28.50;;
5175;SDS011;2607;50.934;6.934;2022-09-11T03:31:16;48.27;;;32.80;;
5175;SDS011;2607;50.934;6.934;2022-09-11T03:33:41;44.93;;;30.20;;
5175;SDS011;2607;50.934;6.934;2022-09-11T03:36:07;40.40;;;27.70;;
5175;SDS011;2607;50.934;6.934;2022-09-11T03:38:34;39.90;;;28.77;;
5175;SDS011;2607;50.934;6.934;2022-09-11T03:41:01;42.17;;;30.30;;
5175;SDS011;2607;50.934;6.934;2022-09-11T03:43:27;45.17;;;29.50;;
5175;SDS011;2607;50.934;6.934;2022-09-11T03:45:53;46.00;;;29.13;;
5175;SDS011;2607;50.934;6.934;2022-09-11T03:48:19;56.67;;;29.47;;
5175;SDS011;2607;50.934;6.934;2022-09-11T03:50:45;47.37;;;32.53;;
5175;SDS011;2607;50.934;6.934;2022-09-11T03:53:13;43.50;;;30.03;;
5175;SDS011;2607;50.934;6.934;2022-09-11T03:55:39;55.00;;;29.80;;
5175;SDS011;2607;50.934;6.934;2022-09-11T03:58:05;58.63;;;30.80;;
5175;SDS011;2607;50.934;6.934;2022-09-11T04:00:33;45.80;;;30.40;;
5175;SDS011;2607;50.934;6.934;2022-09-11T04:03:00;52.33;;;32.10;;
5175;SDS011;2607;50.934;6.934;2022-09-11T04:05:26;48.47;;;31.73;;
5175;SDS011;2607;50.934;6.934;2022-09-11T04:07:52;47.10;;;31.73;;
5175;SDS011;2607;50.934;6.934;2022-09-11T04:10:17;49.17;;;33.10;;
5175;SDS011;2607;50.934;6.934;2022-09-11T04:12:44;54.57;;;30.10;;
5175;SDS011;2607;50.934;6.934;2022-09-11T04:15:10;52.13;;;32.70;;
5175;SDS011;2607;50.934;6.934;2022-09-11T04:17:36;48.43;;;31.47;;
5175;SDS011;2607;50.934;6.934;2022-09-11T04:20:02;50.23;;;34.07;;
5175;SDS011;2607;50.934;6.934;2022-09-11T04:22:28;46.60;;;30.90;;
5175;SDS011;2607;50.934;6.934;2022-09-11T04:24:54;45.50;;;31.40;;
5175;SDS011;2607;50.934;6.934;2022-09-11T04:27:20;55.20;;;35.10;;
5175;SDS011;2607;50.934;6.934;2022-09-11T04:29:47;52.67;;;33.03;;
5175;SDS011;2607;50.934;6.934;2022-09-11T04:32:13;44.10;;;31.43;;
5175;SDS011;2607;50.934;6.934;2022-09-11T04:34:38;47.60;;;30.73;;
5175;SDS011;2607;50.934;6.934;2022-09-11T04:37:04;47.30;;;31.20;;
5175;SDS011;2607;50.934;6.934;2022-09-11T04:39:30;58.50;;;33.77;;
5175;SDS011;2607;50.934;6.934;2022-09-11T04:41:56;55.57;;;33.77;;
5175;SDS011;2607;50.934;6.934;2022-09-11T04:44:22;53.07;;;33.67;;
5175;SDS011;2607;50.934;6.934;2022-09-11T04:46:50;49.23;;;33.10;;
5175;SDS011;2607;50.934;6.934;2022-09-11T04:49:15;56.87;;;33.40;;
5175;SDS011;2607;50.934;6.934;2022-09-11T04:51:41;54.80;;;31.53;;
5175;SDS011;2607;50.934;6.934;2022-09-11T04:54:07;56.40;;;34.37;;
5175;SDS011;2607;50.934;6.934;2022-09-11T04:56:38;58.77;;;33.70;;
5175;SDS011;2607;50.934;6.934;2022-09-11T04:59:05;53.77;;;31.20;;
5175;SDS011;2607;50.934;6.934;2022-09-11T05:01:37;57.13;;;32.80;;
5175;SDS011;2607;50.934;6.934;2022-09-11T05:04:03;52.07;;;33.27;;
5175;SDS011;2607;50.934;6.934;2022-09-11T05:06:30;53.03;;;31.43;;
5175;SDS011;2607;50.934;6.934;2022-09-11T05:08:59;58.30;;;33.10;;
5175;SDS011;2607;50.934;6.934;2022-09-11T05:11:29;54.00;;;30.67;;
5175;SDS011;2607;50.934;6.934;2022-09-11T05:13:54;58.00;;;32.70;;
5175;SDS011;2607;50.934;6.934;2022-09-11T05:16:24;68.47;;;34.20;;
5175;SDS011;2607;50.934;6.934;2022-09-11T05:18:51;59.30;;;31.50;;
5175;SDS011;2607;50.934;6.934;2022-09-11T05:21:18;70.63;;;34.50;;
5175;SDS011;2607;50.934;6.934;2022-09-11T05:23:47;80.23;;;39.90;;
5175;SDS011;2607;50.934;6.934;2022-09-11T05:26:16;76.40;;;37.83;;
5175;SDS011;2607;50.934;6.934;2022-09-11T05:28:43;82.43;;;38.80;;
5175;SDS011;2607;50.934;6.934;2022-09-11T05:31:16;79.63;;;38.00;;
5175;SDS011;2607;50.934;6.934;2022-09-11T05:33:42;86.83;;;40.03;;
5175;SDS011;2607;50.934;6.934;2022-09-11T05:36:09;80.27;;;39.63;;
5175;SDS011;2607;50.934;6.934;2022-09-11T05:38:36;82.00;;;41.23;;
5175;SDS011;2607;50.934;6.934;2022-09-11T05:41:03;86.60;;;39.70;;
5175;SDS011;2607;50.934;6.934;2022-09-11T05:43:30;85.67;;;37.37;;
5175;SDS011;2607;50.934;6.934;2022-09-11T05:45:59;80.43;;;38.03;;
5175;SDS011;2607;50.934;6.934;2022-09-11T05:48:29;82.30;;;36.27;;
5175;SDS011;2607;50.934;6.934;2022-09-11T05:50:56;82.60;;;35.93;;
5175;SDS011;2607;50.934;6.934;2022-09-11T05:53:24;90.23;;;36.80;;
5175;SDS011;2607;50.934;6.934;2022-09-11T05:55:50;89.30;;;39.13;;
5175;SDS011;2607;50.934;6.934;2022-09-11T05:58:16;87.53;;;37.97;;
5175;SDS011;2607;50.934;6.934;2022-09-11T06:00:43;80.57;;;38.43;;
5175;SDS011;2607;50.934;6.934;2022-09-11T06:03:12;82.70;;;37.97;;
5175;SDS011;2607;50.934;6.934;2022-09-11T06:05:38;83.63;;;38.00;;
5175;SDS011;2607;50.934;6.934;2022-09-11T06:08:05;93.10;;;42.60;;
5175;SDS011;2607;50.934;6.934;2022-09-11T06:10:31;90.77;;;42.20;;
5175;SDS011;2607;50.934;6.934;2022-09-11T06:12:56;94.27;;;40.90;;
5175;SDS011;2607;50.934;6.934;2022-09-11T06:15:22;96.40;;;41.80;;
5175;SDS011;2607;50.934;6.934;2022-09-11T06:17:49;101.47;;;42.20;;
5175;SDS011;2607;50.934;6.934;2022-09-11T06:20:15;98.60;;;41.83;;
5175;SDS011;2607;50.934;6.934;2022-09-11T06:22:40;103.90;;;43.20;;
5175;SDS011;2607;50.934;6.934;2022-09-11T06:25:06;80.47;;;38.67;;
5175;SDS011;2607;50.934;6.934;2022-09-11T06:27:33;77.10;;;37.10;;
5175;SDS011;2607;50.934;6.934;2022-09-11T06:29:58;73.90;;;35.97;;
5175;SDS011;2607;50.934;6.934;2022-09-11T06:32:24;64.47;;;34.83;;
5175;SDS011;2607;50.934;6.934;2022-09-11T06:34:49;80.83;;;34.50;;
5175;SDS011;2607;50.934;6.934;2022-09-11T06:37:15;72.23;;;36.73;;
5175;SDS011;2607;50.934;6.934;2022-09-11T06:39:41;71.40;;;36.03;;
5175;SDS011;2607;50.934;6.934;2022-09-11T06:42:06;71.90;;;35.80;;
5175;SDS011;2607;50.934;6.934;2022-09-11T06:44:32;63.10;;;33.97;;
5175;SDS011;2607;50.934;6.934;2022-09-11T06:46:58;69.53;;;34.63;;
5175;SDS011;2607;50.934;6.934;2022-09-11T06:49:23;68.53;;;35.80;;
5175;SDS011;2607;50.934;6.934;2022-09-11T06:51:49;71.33;;;34.03;;
5175;SDS011;2607;50.934;6.934;2022-09-11T06:54:16;67.33;;;33.00;;
5175;SDS011;2607;50.934;6.934;2022-09-11T06:56:42;71.33;;;35.03;;
5175;SDS011;2607;50.934;6.934;2022-09-11T06:59:09;71.80;;;33.53;;
5175;SDS011;2607;50.934;6.934;2022-09-11T07:01:34;59.80;;;31.07;;
5175;SDS011;2607;50.934;6.934;2022-09-11T07:04:00;62.27;;;31.40;;
5175;SDS011;2607;50.934;6.934;2022-09-11T07:06:26;58.40;;;32.20;;
5175;SDS011;2607;50.934;6.934;2022-09-11T07:08:57;60.57;;;31.97;;
5175;SDS011;2607;50.934;6.934;2022-09-11T07:11:28;60.63;;;31.20;;
5175;SDS011;2607;50.934;6.934;2022-09-11T07:13:56;59.50;;;30.60;;
5175;SDS011;2607;50.934;6.934;2022-09-11T07:16:22;50.10;;;29.97;;
5175;SDS011;2607;50.934;6.934;2022-09-11T07:18:48;58.60;;;30.63;;
5175;SDS011;2607;50.934;6.934;2022-09-11T07:21:15;50.43;;;29.60;;
5175;SDS011;2607;50.934;6.934;2022-09-11T07:23:49;57.40;;;30.17;;
5175;SDS011;2607;50.934;6.934;2022-09-11T07:26:18;54.60;;;31.97;;
5175;SDS011;2607;50.934;6.934;2022-09-11T07:28:45;60.90;;;31.23;;
5175;SDS011;2607;50.934;6.934;2022-09-11T07:31:14;60.93;;;31.07;;
5175;SDS011;2607;50.934;6.934;2022-09-11T07:33:41;56.37;;;30.40;;
5175;SDS011;2607;50.934;6.934;2022-09-11T07:36:12;54.47;;;29.50;;
5175;SDS011;2607;50.934;6.934;2022-09-11T07:38:41;51.37;;;29.93;;
5175;SDS011;2607;50.934;6.934;2022-09-11T07:41:08;59.23;;;30.13;;
5175;SDS011;2607;50.934;6.934;2022-09-11T07:43:34;55.50;;;29.87;;
5175;SDS011;2607;50.934;6.934;2022-09-11T07:46:01;54.93;;;29.87;;
5175;SDS011;2607;50.934;6.934;2022-09-11T07:48:26;51.37;;;30.07;;
5175;SDS011;2607;50.934;6.934;2022-09-11T07:50:54;63.00;;;32.00;;
5175;SDS011;2607;50.934;6.934;2022-09-11T07:53:24;53.57;;;29.50;;
5175;SDS011;2607;50.934;6.934;2022-09-11T07:55:50;59.00;;;29.97;;
5175;SDS011;2607;50.934;6.934;2022-09-11T07:58:16;54.50;;;29.60;;
5175;SDS011;2607;50.934;6.934;2022-09-11T08:00:42;52.17;;;30.73;;
5175;SDS011;2607;50.934;6.934;2022-09-11T08:03:07;54.93;;;30.83;;
5175;SDS011;2607;50.934;6.934;2022-09-11T08:05:33;49.47;;;28.23;;
5175;SDS011;2607;50.934;6.934;2022-09-11T08:07:58;49.40;;;27.27;;
5175;SDS011;2607;50.934;6.934;2022-09-11T08:10:24;51.27;;;26.27;;
5175;SDS011;2607;50.934;6.934;2022-09-11T08:12:49;41.83;;;26.00;;
5175;SDS011;2607;50.934;6.934;2022-09-11T08:15:16;43.07;;;25.90;;
5175;SDS011;2607;50.934;6.934;2022-09-11T08:17:43;45.20;;;26.20;;
5175;SDS011;2607;50.934;6.934;2022-09-11T08:20:09;40.57;;;23.73;;
5175;SDS011;2607;50.934;6.934;2022-09-11T08:22:34;57.13;;;34.53;;
5175;SDS011;2607;50.934;6.934;2022-09-11T08:25:00;39.60;;;24.33;;
5175;SDS011;2607;50.934;6.934;2022-09-11T08:27:25;32.43;;;21.40;;
5175;SDS011;2607;50.934;6.934;2022-09-11T08:29:51;32.17;;;21.97;;
5175;SDS011;2607;50.934;6.934;2022-09-11T08:32:18;39.63;;;23.20;;
5175;SDS011;2607;50.934;6.934;2022-09-11T08:34:44;41.37;;;24.80;;
5175;SDS011;2607;50.934;6.934;2022-09-11T08:37:09;38.00;;;23.60;;
5175;SDS011;2607;50.934;6.934;2022-09-11T08:39:35;36.90;;;23.10;;
5175;SDS011;2607;50.934;6.934;2022-09-11T08:42:01;39.33;;;25.40;;
5175;SDS011;2607;50.934;6.934;2022-09-11T08:44:46;36.40;;;22.40;;
5175;SDS011;2607;50.934;6.934;2022-09-11T08:47:19;40.67;;;23.60;;
5175;SDS011;2607;50.934;6.934;2022-09-11T08:49:53;36.57;;;24.63;;
5175;SDS011;2607;50.934;6.934;2022-09-11T08:52:42;31.87;;;21.83;;
5175;SDS011;2607;50.934;6.934;2022-09-11T08:55:11;34.23;;;21.57;;
5175;SDS011;2607;50.934;6.934;2022-09-11T08:57:43;31.97;;;22.27;;
5175;SDS011;2607;50.934;6.934;2022-09-11T09:00:21;31.77;;;20.97;;
5175;SDS011;2607;50.934;6.934;2022-09-11T09:17:14;26.43;;;19.43;;
5175;SDS011;2607;50.934;6.934;2022-09-11T09:19:57;30.20;;;18.90;;
5175;SDS011;2607;50.934;6.934;2022-09-11T09:25:12;34.90;;;22.57;;
5175;SDS011;2607;50.934;6.934;2022-09-11T09:27:45;36.30;;;23.23;;
5175;SDS011;2607;50.934;6.934;2022-09-11T09:30:20;34.33;;;22.20;;
5175;SDS011;2607;50.934;6.934;2022-09-11T09:38:15;29.40;;;20.43;;
5175;SDS011;2607;50.934;6.934;2022-09-11T09:43:34;33.77;;;22.07;;
5175;SDS011;2607;50.934;6.934;2022-09-11T09:46:36;36.70;;;23.50;;
5175;SDS011;2607;50.934;6.934;2022-09-11T09:49:09;32.93;;;23.57;;
5175;SDS011;2607;50.934;6.934;2022-09-11T09:51:40;40.40;;;23.70;;
5175;SDS011;2607;50.934;6.934;2022-09-11T09:54:06;41.40;;;25.23;;
5175;SDS011;2607;50.934;6.934;2022-09-11T09:56:37;36.00;;;24.67;;
5175;SDS011;2607;50.934;6.934;2022-09-11T09:59:12;41.70;;;25.33;;
5175;SDS011;2607;50.934;6.934;2022-09-11T10:01:46;35.97;;;24.83;;
5175;SDS011;2607;50.934;6.934;2022-09-11T10:04:19;36.00;;;25.10;;
5175;SDS011;2607;50.934;6.934;2022-09-11T10:06:47;38.63;;;25.97;;
5175;SDS011;2607;50.934;6.934;2022-09-11T10:09:17;46.70;;;27.63;;
5175;SDS011;2607;50.934;6.934;2022-09-11T10:12:02;36.00;;;24.57;;
5175;SDS011;2607;50.934;6.934;2022-09-11T10:14:32;39.43;;;24.50;;
5175;SDS011;2607;50.934;6.934;2022-09-11T10:17:06;35.53;;;22.60;;
5175;SDS011;2607;50.934;6.934;2022-09-11T10:19:44;36.03;;;23.67;;
5175;SDS011;2607;50.934;6.934;2022-09-11T10:22:27;34.90;;;23.73;;
5175;SDS011;2607;50.934;6.934;2022-09-11T10:27:24;37.30;;;22.90;;
5175;SDS011;2607;50.934;6.934;2022-09-11T10:29:51;40.37;;;27.10;;
5175;SDS011;2607;50.934;6.934;2022-09-11T10:32:18;35.43;;;24.53;;
5175;SDS011;2607;50.934;6.934;2022-09-11T10:34:45;31.53;;;22.50;;
5175;SDS011;2607;50.934;6.934;2022-09-11T10:39:37;33.20;;;23.63;;
5175;SDS011;2607;50.934;6.934;2022-09-11T10:42:26;29.93;;;22.50;;
5175;SDS011;2607;50.934;6.934;2022-09-11T10:44:53;33.23;;;21.20;;
5175;SDS011;2607;50.934;6.934;2022-09-11T10:47:30;29.40;;;20.93;;
5175;SDS011;2607;50.934;6.934;2022-09-11T10:55:36;30.60;;;21.10;;
5175;SDS011;2607;50.934;6.934;2022-09-11T10:58:11;34.63;;;20.80;;
5175;SDS011;2607;50.934;6.934;2022-09-11T11:00:39;32.70;;;22.83;;
5175;SDS011;2607;50.934;6.934;2022-09-11T11:08:45;30.03;;;22.00;;
5175;SDS011;2607;50.934;6.934;2022-09-11T11:27:56;21.93;;;17.20;;
5175;SDS011;2607;50.934;6.934;2022-09-11T11:31:15;22.03;;;16.93;;
5175;SDS011;2607;50.934;6.934;2022-09-11T11:36:47;22.63;;;18.10;;
5175;SDS011;2607;50.934;6.934;2022-09-11T11:39:47;23.93;;;18.20;;
5175;SDS011;2607;50.934;6.934;2022-09-11T11:42:29;22.73;;;17.67;;
5175;SDS011;2607;50.934;6.934;2022-09-11T11:45:05;25.53;;;19.03;;
5175;SDS011;2607;50.934;6.934;2022-09-11T11:47:40;21.63;;;16.80;;
5175;SDS011;2607;50.934;6.934;2022-09-11T11:53:17;21.47;;;17.57;;
5175;SDS011;2607;50.934;6.934;2022-09-11T11:55:52;22.43;;;16.87;;
5175;SDS011;2607;50.934;6.934;2022-09-11T11:58:40;21.63;;;16.13;;
5175;SDS011;2607;50.934;6.934;2022-09-11T12:06:56;18.13;;;14.50;;
5175;SDS011;2607;50.934;6.934;2022-09-11T12:09:23;21.10;;;14.80;;
5175;SDS011;2607;50.934;6.934;2022-09-11T12:11:51;17.30;;;13.10;;
5175;SDS011;2607;50.934;6.934;2022-09-11T12:14:23;30.63;;;18.50;;
5175;SDS011;2607;50.934;6.934;2022-09-11T12:16:56;19.30;;;15.20;;
5175;SDS011;2607;50.934;6.934;2022-09-11T12:19:22;18.57;;;14.93;;
5175;SDS011;2607;50.934;6.934;2022-09-11T12:24:18;14.87;;;12.47;;
5175;SDS011;2607;50.934;6.934;2022-09-11T12:27:30;14.33;;;12.77;;
5175;SDS011;2607;50.934;6.934;2022-09-11T12:29:54;13.30;;;11.73;;
5175;SDS011;2607;50.934;6.934;2022-09-11T12:32:38;11.33;;;10.23;;
5175;SDS011;2607;50.934;6.934;2022-09-11T12:35:25;11.53;;;10.40;;
5175;SDS011;2607;50.934;6.934;2022-09-11T12:38:16;10.30;;;9.20;;
5175;SDS011;2607;50.934;6.934;2022-09-11T12:40:54;12.40;;;10.73;;
5175;SDS011;2607;50.934;6.934;2022-09-11T12:43:56;10.47;;;9.47;;
5175;SDS011;2607;50.934;6.934;2022-09-11T12:51:31;10.60;;;9.03;;
5175;SDS011;2607;50.934;6.934;2022-09-11T12:54:01;9.83;;;7.80;;
5175;SDS011;2607;50.934;6.934;2022-09-11T12:56:35;9.00;;;8.10;;
5175;SDS011;2607;50.934;6.934;2022-09-11T12:59:01;9.90;;;9.00;;
5175;SDS011;2607;50.934;6.934;2022-09-11T13:01:32;9.60;;;8.70;;
5175;SDS011;2607;50.934;6.934;2022-09-11T13:06:35;9.30;;;8.00;;
5175;SDS011;2607;50.934;6.934;2022-09-11T13:09:05;9.00;;;8.13;;
5175;SDS011;2607;50.934;6.934;2022-09-11T13:11:44;9.20;;;8.40;;
5175;SDS011;2607;50.934;6.934;2022-09-11T13:14:55;9.53;;;8.63;;
5175;SDS011;2607;50.934;6.934;2022-09-11T13:17:02;8.70;;;8.10;;
5175;SDS011;2607;50.934;6.934;2022-09-11T13:19:36;9.23;;;8.53;;
5175;SDS011;2607;50.934;6.934;2022-09-11T13:24:49;9.40;;;8.50;;
5175;SDS011;2607;50.934;6.934;2022-09-11T13:27:24;9.40;;;8.60;;
5175;SDS011;2607;50.934;6.934;2022-09-11T13:29:54;10.90;;;9.90;;
5175;SDS011;2607;50.934;6.934;2022-09-11T13:32:23;18.00;;;16.00;;
5175;SDS011;2607;50.934;6.934;2022-09-11T13:34:50;27.93;;;20.60;;
5175;SDS011;2607;50.934;6.934;2022-09-11T13:37:54;18.83;;;14.07;;
5175;SDS011;2607;50.934;6.934;2022-09-11T13:40:21;12.70;;;11.17;;
5175;SDS011;2607;50.934;6.934;2022-09-11T13:42:55;36.77;;;28.67;;
5175;SDS011;2607;50.934;6.934;2022-09-11T13:45:22;11.53;;;10.07;;
5175;SDS011;2607;50.934;6.934;2022-09-11T13:47:50;21.60;;;14.70;;
5175;SDS011;2607;50.934;6.934;2022-09-11T13:50:18;10.03;;;9.13;;
5175;SDS011;2607;50.934;6.934;2022-09-11T13:52:46;14.90;;;13.43;;
5175;SDS011;2607;50.934;6.934;2022-09-11T13:55:14;11.77;;;10.17;;
5175;SDS011;2607;50.934;6.934;2022-09-11T14:05:50;10.93;;;9.70;;
5175;SDS011;2607;50.934;6.934;2022-09-11T14:11:00;9.20;;;8.40;;
5175;SDS011;2607;50.934;6.934;2022-09-11T14:18:44;13.20;;;10.70;;
5175;SDS011;2607;50.934;6.934;2022-09-11T14:21:15;12.80;;;9.90;;
5175;SDS011;2607;50.934;6.934;2022-09-11T14:23:45;12.20;;;9.27;;
5175;SDS011;2607;50.934;6.934;2022-09-11T14:26:15;11.97;;;9.23;;
5175;SDS011;2607;50.934;6.934;2022-09-11T14:31:31;14.83;;;10.40;;
5175;SDS011;2607;50.934;6.934;2022-09-11T14:37:04;9.60;;;8.70;;
5175;SDS011;2607;50.934;6.934;2022-09-11T14:39:37;9.80;;;8.90;;
5175;SDS011;2607;50.934;6.934;2022-09-11T14:42:05;9.97;;;9.10;;
5175;SDS011;2607;50.934;6.934;2022-09-11T14:44:44;13.10;;;11.80;;
5175;SDS011;2607;50.934;6.934;2022-09-11T14:47:20;10.73;;;9.70;;
5175;SDS011;2607;50.934;6.934;2022-09-11T14:49:47;10.27;;;9.00;;
5175;SDS011;2607;50.934;6.934;2022-09-11T14:52:16;9.93;;;9.00;;
5175;SDS011;2607;50.934;6.934;2022-09-11T14:54:44;12.10;;;10.90;;
5175;SDS011;2607;50.934;6.934;2022-09-11T14:57:17;9.30;;;8.50;;
5175;SDS011;2607;50.934;6.934;2022-09-11T14:59:48;9.03;;;8.23;;
5175;SDS011;2607;50.934;6.934;2022-09-11T15:02:16;9.47;;;8.50;;
5175;SDS011;2607;50.934;6.934;2022-09-11T15:04:43;12.83;;;11.33;;
5175;SDS011;2607;50.934;6.934;2022-09-11T15:07:11;12.50;;;9.80;;
5175;SDS011;2607;50.934;6.934;2022-09-11T15:09:38;9.03;;;8.13;;
5175;SDS011;2607;50.934;6.934;2022-09-11T15:12:04;9.93;;;9.10;;
5175;SDS011;2607;50.934;6.934;2022-09-11T15:14:30;9.17;;;8.30;;
5175;SDS011;2607;50.934;6.934;2022-09-11T15:17:00;10.33;;;9.43;;
5175;SDS011;2607;50.934;6.934;2022-09-11T15:19:27;9.53;;;8.73;;
5175;SDS011;2607;50.934;6.934;2022-09-11T15:21:53;9.13;;;8.13;;
5175;SDS011;2607;50.934;6.934;2022-09-11T15:24:20;9.10;;;8.30;;
5175;SDS011;2607;50.934;6.934;2022-09-11T15:26:48;10.80;;;9.67;;
5175;SDS011;2607;50.934;6.934;2022-09-11T15:29:16;10.80;;;8.63;;
5175;SDS011;2607;50.934;6.934;2022-09-11T15:31:41;9.33;;;8.53;;
5175;SDS011;2607;50.934;6.934;2022-09-11T15:34:07;16.13;;;10.50;;
5175;SDS011;2607;50.934;6.934;2022-09-11T15:36:34;31.50;;;23.37;;
5175;SDS011;2607;50.934;6.934;2022-09-11T15:39:02;9.57;;;8.67;;
5175;SDS011;2607;50.934;6.934;2022-09-11T15:41:28;9.00;;;8.20;;
5175;SDS011;2607;50.934;6.934;2022-09-11T15:43:55;8.37;;;7.40;;
5175;SDS011;2607;50.934;6.934;2022-09-11T15:46:20;8.83;;;8.03;;
5175;SDS011;2607;50.934;6.934;2022-09-11T15:48:46;9.00;;;8.10;;
5175;SDS011;2607;50.934;6.934;2022-09-11T15:51:13;13.40;;;10.80;;
5175;SDS011;2607;50.934;6.934;2022-09-11T15:53:42;10.30;;;7.90;;
5175;SDS011;2607;50.934;6.934;2022-09-11T15:56:11;11.33;;;10.13;;
5175;SDS011;2607;50.934;6.934;2022-09-11T15:58:39;10.33;;;9.33;;
5175;SDS011;2607;50.934;6.934;2022-09-11T16:01:06;52.30;;;35.70;;
5175;SDS011;2607;50.934;6.934;2022-09-11T16:03:50;10.80;;;9.80;;
5175;SDS011;2607;50.934;6.934;2022-09-11T16:06:17;10.57;;;9.57;;
5175;SDS011;2607;50.934;6.934;2022-09-11T16:08:43;8.97;;;8.13;;
5175;SDS011;2607;50.934;6.934;2022-09-11T16:11:09;13.50;;;12.10;;
5175;SDS011;2607;50.934;6.934;2022-09-11T16:13:35;7.97;;;7.27;;
5175;SDS011;2607;50.934;6.934;2022-09-11T16:16:01;12.50;;;10.17;;
5175;SDS011;2607;50.934;6.934;2022-09-11T16:18:28;8.30;;;7.70;;
5175;SDS011;2607;50.934;6.934;2022-09-11T16:20:55;9.33;;;8.47;;
5175;SDS011;2607;50.934;6.934;2022-09-11T16:23:24;8.30;;;7.50;;
5175;SDS011;2607;50.934;6.934;2022-09-11T16:25:52;7.30;;;6.80;;
5175;SDS011;2607;50.934;6.934;2022-09-11T16:28:18;10.00;;;7.43;;
5175;SDS011;2607;50.934;6.934;2022-09-11T16:30:45;11.50;;;10.40;;
5175;SDS011;2607;50.934;6.934;2022-09-11T16:33:10;10.17;;;9.17;;
5175;SDS011;2607;50.934;6.934;2022-09-11T16:35:37;9.63;;;8.70;;
5175;SDS011;2607;50.934;6.934;2022-09-11T16:38:03;8.63;;;7.93;;
5175;SDS011;2607;50.934;6.934;2022-09-11T16:40:31;9.10;;;8.40;;
5175;SDS011;2607;50.934;6.934;2022-09-11T16:42:59;8.90;;;8.13;;
5175;SDS011;2607;50.934;6.934;2022-09-11T16:45:25;9.53;;;8.73;;
5175;SDS011;2607;50.934;6.934;2022-09-11T16:47:52;11.17;;;10.03;;
5175;SDS011;2607;50.934;6.934;2022-09-11T16:50:18;13.37;;;12.03;;
5175;SDS011;2607;50.934;6.934;2022-09-11T16:52:44;12.00;;;10.30;;
5175;SDS011;2607;50.934;6.934;2022-09-11T16:55:10;12.20;;;9.40;;
5175;SDS011;2607;50.934;6.934;2022-09-11T16:57:36;9.63;;;8.60;;
5175;SDS011;2607;50.934;6.934;2022-09-11T17:00:03;10.20;;;9.30;;
5175;SDS011;2607;50.934;6.934;2022-09-11T17:02:29;13.97;;;12.20;;
5175;SDS011;2607;50.934;6.934;2022-09-11T17:04:55;13.17;;;8.93;;
5175;SDS011;2607;50.934;6.934;2022-09-11T17:07:20;14.10;;;12.70;;
5175;SDS011;2607;50.934;6.934;2022-09-11T17:09:47;13.50;;;11.33;;
5175;SDS011;2607;50.934;6.934;2022-09-11T17:12:13;12.07;;;10.77;;
5175;SDS011;2607;50.934;6.934;2022-09-11T17:14:41;18.07;;;11.80;;
5175;SDS011;2607;50.934;6.934;2022-09-11T17:17:07;11.87;;;10.10;;
5175;SDS011;2607;50.934;6.934;2022-09-11T17:19:32;16.67;;;12.20;;
5175;SDS011;2607;50.934;6.934;2022-09-11T17:21:58;12.70;;;11.50;;
5175;SDS011;2607;50.934;6.934;2022-09-11T17:24:24;13.50;;;10.87;;